sensor_id;sensor_type;location;lat;lon;timestamp;P1;durP1;ratioP1;P2;durP2;ratioP2
44824;SDS011;30542;47.928;2.138;2023-02-01T00:04:22;1.83;;;1.00;;
44824;SDS011;30542;47.928;2.138;2023-02-01T00:09:23;2.47;;;0.90;;
44824;SDS011;30542;47.928;2.138;2023-02-01T00:14:23;2.45;;;0.70;;
44824;SDS011;30542;47.928;2.138;2023-02-01T00:19:24;2.83;;;0.60;;
44824;SDS011;30542;47.928;2.138;2023-02-01T00:24:24;2.33;;;0.80;;
44824;SDS011;30542;47.928;2.138;2023-02-01T00:29:24;2.50;;;0.83;;
44824;SDS011;30542;47.928;2.138;2023-02-01T00:34:25;2.42;;;0.70;;
44824;SDS011;30542;47.928;2.138;2023-02-01T00:39:26;2.42;;;0.73;;
44824;SDS011;30542;47.928;2.138;2023-02-01T00:44:26;2.33;;;0.70;;
44824;SDS011;30542;47.928;2.138;2023-02-01T00:49:27;2.50;;;0.70;;
44824;SDS011;30542;47.928;2.138;2023-02-01T00:54:28;2.85;;;0.65;;
44824;SDS011;30542;47.928;2.138;2023-02-01T00:59:29;1.90;;;0.60;;
44824;SDS011;30542;47.928;2.138;2023-02-01T01:04:29;1.50;;;0.70;;
44824;SDS011;30542;47.928;2.138;2023-02-01T01:09:29;1.60;;;0.60;;
44824;SDS011;30542;47.928;2.138;2023-02-01T01:14:30;2.97;;;0.83;;
44824;SDS011;30542;47.928;2.138;2023-02-01T01:19:30;2.00;;;0.77;;
44824;SDS011;30542;47.928;2.138;2023-02-01T01:24:30;1.67;;;0.87;;
44824;SDS011;30542;47.928;2.138;2023-02-01T01:29:31;1.63;;;0.63;;
44824;SDS011;30542;47.928;2.138;2023-02-01T01:34:31;1.70;;;0.70;;
44824;SDS011;30542;47.928;2.138;2023-02-01T01:39:31;2.43;;;1.00;;
44824;SDS011;30542;47.928;2.138;2023-02-01T01:50:03;2.13;;;0.80;;
44824;SDS011;30542;47.928;2.138;2023-02-01T01:55:07;1.10;;;0.50;;
44824;SDS011;30542;47.928;2.138;2023-02-01T02:00:09;1.70;;;0.50;;
44824;SDS011;30542;47.928;2.138;2023-02-01T02:05:14;2.03;;;0.68;;
44824;SDS011;30542;47.928;2.138;2023-02-01T02:10:17;1.42;;;0.55;;
44824;SDS011;30542;47.928;2.138;2023-02-01T02:15:18;2.60;;;0.73;;
44824;SDS011;30542;47.928;2.138;2023-02-01T02:36:25;1.98;;;0.40;;
44824;SDS011;30542;47.928;2.138;2023-02-01T02:41:41;1.60;;;0.65;;
44824;SDS011;30542;47.928;2.138;2023-02-01T02:47:17;1.77;;;0.80;;
44824;SDS011;30542;47.928;2.138;2023-02-01T02:52:25;2.95;;;0.75;;
44824;SDS011;30542;47.928;2.138;2023-02-01T02:57:46;2.22;;;0.52;;
44824;SDS011;30542;47.928;2.138;2023-02-01T03:03:06;1.58;;;0.60;;
44824;SDS011;30542;47.928;2.138;2023-02-01T03:08:26;1.95;;;0.73;;
44824;SDS011;30542;47.928;2.138;2023-02-01T03:13:40;1.90;;;0.50;;
44824;SDS011;30542;47.928;2.138;2023-02-01T03:18:48;2.22;;;0.73;;
44824;SDS011;30542;47.928;2.138;2023-02-01T03:23:55;1.75;;;0.50;;
44824;SDS011;30542;47.928;2.138;2023-02-01T03:29:03;1.98;;;0.50;;
44824;SDS011;30542;47.928;2.138;2023-02-01T03:34:11;1.63;;;0.77;;
44824;SDS011;30542;47.928;2.138;2023-02-01T03:44:39;2.72;;;0.80;;
44824;SDS011;30542;47.928;2.138;2023-02-01T03:49:48;1.88;;;0.80;;
44824;SDS011;30542;47.928;2.138;2023-02-01T03:54:53;1.52;;;0.57;;
44824;SDS011;30542;47.928;2.138;2023-02-01T03:59:55;1.67;;;0.68;;
44824;SDS011;30542;47.928;2.138;2023-02-01T04:05:06;1.58;;;0.60;;
44824;SDS011;30542;47.928;2.138;2023-02-01T04:10:06;1.67;;;0.80;;
44824;SDS011;30542;47.928;2.138;2023-02-01T04:15:08;1.85;;;0.70;;
44824;SDS011;30542;47.928;2.138;2023-02-01T04:20:09;1.45;;;0.50;;
44824;SDS011;30542;47.928;2.138;2023-02-01T04:25:09;1.17;;;0.60;;
44824;SDS011;30542;47.928;2.138;2023-02-01T04:30:10;1.92;;;0.93;;
44824;SDS011;30542;47.928;2.138;2023-02-01T04:35:11;1.67;;;0.52;;
44824;SDS011;30542;47.928;2.138;2023-02-01T04:40:12;2.30;;;0.57;;
44824;SDS011;30542;47.928;2.138;2023-02-01T04:45:12;2.00;;;0.65;;
44824;SDS011;30542;47.928;2.138;2023-02-01T04:50:13;0.65;;;0.43;;
44824;SDS011;30542;47.928;2.138;2023-02-01T04:55:13;2.37;;;0.70;;
44824;SDS011;30542;47.928;2.138;2023-02-01T05:00:13;1.77;;;0.60;;
44824;SDS011;30542;47.928;2.138;2023-02-01T05:05:14;1.38;;;0.47;;
44824;SDS011;30542;47.928;2.138;2023-02-01T05:10:15;1.23;;;0.60;;
44824;SDS011;30542;47.928;2.138;2023-02-01T05:15:15;1.98;;;0.40;;
44824;SDS011;30542;47.928;2.138;2023-02-01T05:20:16;1.30;;;0.63;;
44824;SDS011;30542;47.928;2.138;2023-02-01T05:25:16;1.75;;;0.43;;
44824;SDS011;30542;47.928;2.138;2023-02-01T05:30:17;2.15;;;0.68;;
44824;SDS011;30542;47.928;2.138;2023-02-01T05:35:17;1.58;;;0.50;;
44824;SDS011;30542;47.928;2.138;2023-02-01T05:40:18;1.67;;;0.60;;
44824;SDS011;30542;47.928;2.138;2023-02-01T05:45:18;1.48;;;0.45;;
44824;SDS011;30542;47.928;2.138;2023-02-01T05:50:19;1.83;;;0.67;;
44824;SDS011;30542;47.928;2.138;2023-02-01T05:55:19;1.07;;;0.60;;
44824;SDS011;30542;47.928;2.138;2023-02-01T06:00:19;1.83;;;0.40;;
44824;SDS011;30542;47.928;2.138;2023-02-01T06:05:20;3.15;;;0.30;;
44824;SDS011;30542;47.928;2.138;2023-02-01T06:10:21;1.02;;;0.60;;
44824;SDS011;30542;47.928;2.138;2023-02-01T06:15:21;1.23;;;0.60;;
44824;SDS011;30542;47.928;2.138;2023-02-01T06:20:22;1.20;;;0.40;;
44824;SDS011;30542;47.928;2.138;2023-02-01T06:25:22;0.97;;;0.30;;
44824;SDS011;30542;47.928;2.138;2023-02-01T06:30:22;1.10;;;0.40;;
44824;SDS011;30542;47.928;2.138;2023-02-01T06:35:23;1.27;;;0.57;;
44824;SDS011;30542;47.928;2.138;2023-02-01T06:40:23;1.87;;;0.83;;
44824;SDS011;30542;47.928;2.138;2023-02-01T06:45:24;2.70;;;0.57;;
44824;SDS011;30542;47.928;2.138;2023-02-01T06:50:24;1.83;;;0.40;;
44824;SDS011;30542;47.928;2.138;2023-02-01T06:55:24;5.43;;;0.70;;
44824;SDS011;30542;47.928;2.138;2023-02-01T07:00:25;2.43;;;0.40;;
44824;SDS011;30542;47.928;2.138;2023-02-01T07:05:25;5.53;;;1.20;;
44824;SDS011;30542;47.928;2.138;2023-02-01T07:10:25;8.27;;;1.10;;
44824;SDS011;30542;47.928;2.138;2023-02-01T07:15:26;8.57;;;1.13;;
44824;SDS011;30542;47.928;2.138;2023-02-01T07:20:26;7.72;;;1.20;;
44824;SDS011;30542;47.928;2.138;2023-02-01T07:25:26;7.67;;;1.80;;
44824;SDS011;30542;47.928;2.138;2023-02-01T07:30:27;8.02;;;2.95;;
44824;SDS011;30542;47.928;2.138;2023-02-01T07:35:28;4.40;;;2.35;;
44824;SDS011;30542;47.928;2.138;2023-02-01T07:40:29;5.15;;;2.38;;
44824;SDS011;30542;47.928;2.138;2023-02-01T07:45:30;7.28;;;3.35;;
44824;SDS011;30542;47.928;2.138;2023-02-01T07:50:30;7.40;;;2.70;;
44824;SDS011;30542;47.928;2.138;2023-02-01T07:55:30;7.97;;;2.87;;
44824;SDS011;30542;47.928;2.138;2023-02-01T08:00:31;12.53;;;3.10;;
44824;SDS011;30542;47.928;2.138;2023-02-01T08:05:56;17.75;;;4.20;;
44824;SDS011;30542;47.928;2.138;2023-02-01T08:10:57;11.63;;;4.60;;
44824;SDS011;30542;47.928;2.138;2023-02-01T08:15:58;15.00;;;6.05;;
44824;SDS011;30542;47.928;2.138;2023-02-01T08:21:07;14.40;;;6.80;;
44824;SDS011;30542;47.928;2.138;2023-02-01T08:26:11;15.40;;;7.45;;
44824;SDS011;30542;47.928;2.138;2023-02-01T08:31:15;16.83;;;6.72;;
44824;SDS011;30542;47.928;2.138;2023-02-01T08:36:17;10.25;;;5.32;;
44824;SDS011;30542;47.928;2.138;2023-02-01T08:41:20;11.77;;;5.18;;
44824;SDS011;30542;47.928;2.138;2023-02-01T08:46:22;10.60;;;4.65;;
44824;SDS011;30542;47.928;2.138;2023-02-01T08:51:23;11.00;;;4.00;;
44824;SDS011;30542;47.928;2.138;2023-02-01T08:56:24;8.80;;;4.23;;
44824;SDS011;30542;47.928;2.138;2023-02-01T09:01:24;8.17;;;3.97;;
44824;SDS011;30542;47.928;2.138;2023-02-01T09:06:25;8.77;;;3.75;;
44824;SDS011;30542;47.928;2.138;2023-02-01T09:11:25;11.50;;;4.10;;
44824;SDS011;30542;47.928;2.138;2023-02-01T09:16:26;10.07;;;4.07;;
44824;SDS011;30542;47.928;2.138;2023-02-01T09:21:27;18.57;;;5.00;;
44824;SDS011;30542;47.928;2.138;2023-02-01T09:26:27;10.45;;;4.00;;
44824;SDS011;30542;47.928;2.138;2023-02-01T09:31:28;9.07;;;3.80;;
44824;SDS011;30542;47.928;2.138;2023-02-01T09:36:29;9.45;;;4.00;;
44824;SDS011;30542;47.928;2.138;2023-02-01T09:46:42;8.88;;;3.53;;
44824;SDS011;30542;47.928;2.138;2023-02-01T09:51:44;8.10;;;3.40;;
44824;SDS011;30542;47.928;2.138;2023-02-01T09:57:02;10.57;;;3.60;;
44824;SDS011;30542;47.928;2.138;2023-02-01T10:02:12;5.13;;;2.63;;
44824;SDS011;30542;47.928;2.138;2023-02-01T10:19:10;5.60;;;2.67;;
44824;SDS011;30542;47.928;2.138;2023-02-01T10:29:45;7.90;;;2.97;;
44824;SDS011;30542;47.928;2.138;2023-02-01T10:35:00;7.30;;;2.45;;
44824;SDS011;30542;47.928;2.138;2023-02-01T10:45:37;5.88;;;2.72;;
44824;SDS011;30542;47.928;2.138;2023-02-01T10:50:49;6.55;;;2.22;;
44824;SDS011;30542;47.928;2.138;2023-02-01T10:56:06;4.90;;;2.63;;
44824;SDS011;30542;47.928;2.138;2023-02-01T11:01:09;5.25;;;2.30;;
44824;SDS011;30542;47.928;2.138;2023-02-01T11:11:22;5.82;;;2.20;;
44824;SDS011;30542;47.928;2.138;2023-02-01T11:16:28;5.25;;;2.20;;
44824;SDS011;30542;47.928;2.138;2023-02-01T11:21:36;5.13;;;1.90;;
44824;SDS011;30542;47.928;2.138;2023-02-01T11:26:39;4.68;;;1.67;;
44824;SDS011;30542;47.928;2.138;2023-02-01T11:31:41;5.05;;;2.03;;
44824;SDS011;30542;47.928;2.138;2023-02-01T11:36:43;4.72;;;1.92;;
44824;SDS011;30542;47.928;2.138;2023-02-01T11:42:04;4.65;;;1.55;;
44824;SDS011;30542;47.928;2.138;2023-02-01T12:35:53;3.25;;;1.30;;
44824;SDS011;30542;47.928;2.138;2023-02-01T12:41:36;7.50;;;1.38;;
44824;SDS011;30542;47.928;2.138;2023-02-01T12:47:30;5.28;;;1.67;;
44824;SDS011;30542;47.928;2.138;2023-02-01T12:57:52;5.53;;;1.80;;
44824;SDS011;30542;47.928;2.138;2023-02-01T13:08:07;6.57;;;2.80;;
44824;SDS011;30542;47.928;2.138;2023-02-01T13:18:25;10.45;;;4.53;;
44824;SDS011;30542;47.928;2.138;2023-02-01T13:23:36;7.20;;;4.30;;
44824;SDS011;30542;47.928;2.138;2023-02-01T13:45:05;9.00;;;3.50;;
44824;SDS011;30542;47.928;2.138;2023-02-01T14:00:37;6.67;;;3.07;;
44824;SDS011;30542;47.928;2.138;2023-02-01T14:21:27;5.97;;;2.47;;
44824;SDS011;30542;47.928;2.138;2023-02-01T14:36:47;8.25;;;2.63;;
44824;SDS011;30542;47.928;2.138;2023-02-01T14:41:52;8.02;;;2.70;;
44824;SDS011;30542;47.928;2.138;2023-02-01T14:52:09;4.53;;;2.17;;
44824;SDS011;30542;47.928;2.138;2023-02-01T14:57:17;8.20;;;2.55;;
44824;SDS011;30542;47.928;2.138;2023-02-01T15:02:21;9.15;;;2.85;;
44824;SDS011;30542;47.928;2.138;2023-02-01T15:07:25;7.93;;;3.15;;
44824;SDS011;30542;47.928;2.138;2023-02-01T15:12:28;6.95;;;2.42;;
44824;SDS011;30542;47.928;2.138;2023-02-01T15:17:31;8.18;;;2.85;;
44824;SDS011;30542;47.928;2.138;2023-02-01T15:22:33;4.63;;;2.08;;
44824;SDS011;30542;47.928;2.138;2023-02-01T15:27:34;6.63;;;2.80;;
44824;SDS011;30542;47.928;2.138;2023-02-01T15:32:36;7.07;;;2.70;;
44824;SDS011;30542;47.928;2.138;2023-02-01T15:37:38;6.47;;;2.58;;
44824;SDS011;30542;47.928;2.138;2023-02-01T15:42:52;6.63;;;2.17;;
44824;SDS011;30542;47.928;2.138;2023-02-01T15:47:56;4.78;;;2.58;;
44824;SDS011;30542;47.928;2.138;2023-02-01T15:52:57;6.13;;;2.38;;
44824;SDS011;30542;47.928;2.138;2023-02-01T15:57:58;8.15;;;2.40;;
44824;SDS011;30542;47.928;2.138;2023-02-01T16:03:05;5.30;;;1.88;;
44824;SDS011;30542;47.928;2.138;2023-02-01T16:08:24;4.53;;;1.98;;
44824;SDS011;30542;47.928;2.138;2023-02-01T16:13:26;10.60;;;2.30;;
44824;SDS011;30542;47.928;2.138;2023-02-01T16:18:27;11.87;;;3.67;;
44824;SDS011;30542;47.928;2.138;2023-02-01T16:23:27;17.83;;;4.03;;
44824;SDS011;30542;47.928;2.138;2023-02-01T16:28:29;11.85;;;4.10;;
44824;SDS011;30542;47.928;2.138;2023-02-01T16:33:29;15.68;;;3.67;;
44824;SDS011;30542;47.928;2.138;2023-02-01T16:38:30;13.50;;;4.33;;
44824;SDS011;30542;47.928;2.138;2023-02-01T16:43:31;14.82;;;4.35;;
44824;SDS011;30542;47.928;2.138;2023-02-01T16:48:33;10.83;;;3.53;;
44824;SDS011;30542;47.928;2.138;2023-02-01T16:53:35;10.63;;;3.08;;
44824;SDS011;30542;47.928;2.138;2023-02-01T16:58:35;7.63;;;3.00;;
44824;SDS011;30542;47.928;2.138;2023-02-01T17:03:36;8.07;;;3.33;;
44824;SDS011;30542;47.928;2.138;2023-02-01T17:08:38;6.90;;;2.45;;
44824;SDS011;30542;47.928;2.138;2023-02-01T17:13:42;8.98;;;2.65;;
44824;SDS011;30542;47.928;2.138;2023-02-01T17:18:55;8.20;;;2.55;;
44824;SDS011;30542;47.928;2.138;2023-02-01T17:23:56;8.23;;;2.97;;
44824;SDS011;30542;47.928;2.138;2023-02-01T17:28:58;8.90;;;2.85;;
44824;SDS011;30542;47.928;2.138;2023-02-01T17:33:59;8.50;;;2.93;;
44824;SDS011;30542;47.928;2.138;2023-02-01T17:38:59;7.23;;;2.60;;
44824;SDS011;30542;47.928;2.138;2023-02-01T17:43:59;8.23;;;3.23;;
44824;SDS011;30542;47.928;2.138;2023-02-01T17:49:00;7.75;;;3.20;;
44824;SDS011;30542;47.928;2.138;2023-02-01T17:54:02;5.85;;;2.47;;
44824;SDS011;30542;47.928;2.138;2023-02-01T17:59:03;6.70;;;2.53;;
44824;SDS011;30542;47.928;2.138;2023-02-01T18:04:03;7.75;;;3.00;;
44824;SDS011;30542;47.928;2.138;2023-02-01T18:09:03;7.07;;;2.30;;
44824;SDS011;30542;47.928;2.138;2023-02-01T18:14:04;5.93;;;2.63;;
44824;SDS011;30542;47.928;2.138;2023-02-01T18:19:04;7.03;;;2.73;;
44824;SDS011;30542;47.928;2.138;2023-02-01T18:24:05;6.23;;;2.37;;
44824;SDS011;30542;47.928;2.138;2023-02-01T18:29:05;6.20;;;2.30;;
44824;SDS011;30542;47.928;2.138;2023-02-01T18:34:08;5.85;;;2.20;;
44824;SDS011;30542;47.928;2.138;2023-02-01T18:39:09;7.00;;;1.98;;
44824;SDS011;30542;47.928;2.138;2023-02-01T18:44:12;6.50;;;2.35;;
44824;SDS011;30542;47.928;2.138;2023-02-01T18:49:16;5.78;;;2.13;;
44824;SDS011;30542;47.928;2.138;2023-02-01T18:54:18;6.13;;;2.33;;
44824;SDS011;30542;47.928;2.138;2023-02-01T18:59:19;7.18;;;2.20;;
44824;SDS011;30542;47.928;2.138;2023-02-01T19:04:19;6.03;;;2.63;;
44824;SDS011;30542;47.928;2.138;2023-02-01T19:09:19;4.37;;;1.50;;
44824;SDS011;30542;47.928;2.138;2023-02-01T19:14:20;7.40;;;2.55;;
44824;SDS011;30542;47.928;2.138;2023-02-01T19:19:20;5.37;;;2.20;;
44824;SDS011;30542;47.928;2.138;2023-02-01T19:24:21;3.93;;;2.07;;
44824;SDS011;30542;47.928;2.138;2023-02-01T19:29:22;4.93;;;1.75;;
44824;SDS011;30542;47.928;2.138;2023-02-01T19:34:23;3.95;;;2.00;;
44824;SDS011;30542;47.928;2.138;2023-02-01T19:39:23;4.33;;;1.87;;
44824;SDS011;30542;47.928;2.138;2023-02-01T19:44:24;3.80;;;1.85;;
44824;SDS011;30542;47.928;2.138;2023-02-01T19:49:27;6.28;;;2.28;;
44824;SDS011;30542;47.928;2.138;2023-02-01T19:54:27;4.57;;;2.20;;
44824;SDS011;30542;47.928;2.138;2023-02-01T19:59:28;5.78;;;2.22;;
44824;SDS011;30542;47.928;2.138;2023-02-01T20:04:28;5.32;;;2.17;;
44824;SDS011;30542;47.928;2.138;2023-02-01T20:09:28;4.93;;;1.90;;
44824;SDS011;30542;47.928;2.138;2023-02-01T20:14:29;6.20;;;2.03;;
44824;SDS011;30542;47.928;2.138;2023-02-01T20:19:30;7.40;;;2.38;;
44824;SDS011;30542;47.928;2.138;2023-02-01T20:24:31;5.15;;;2.55;;
44824;SDS011;30542;47.928;2.138;2023-02-01T20:29:31;5.63;;;2.60;;
44824;SDS011;30542;47.928;2.138;2023-02-01T20:34:32;4.57;;;2.35;;
44824;SDS011;30542;47.928;2.138;2023-02-01T20:39:32;5.13;;;1.90;;
44824;SDS011;30542;47.928;2.138;2023-02-01T20:44:32;6.87;;;2.10;;
44824;SDS011;30542;47.928;2.138;2023-02-01T20:49:33;5.17;;;2.17;;
44824;SDS011;30542;47.928;2.138;2023-02-01T20:54:39;5.90;;;2.28;;
44824;SDS011;30542;47.928;2.138;2023-02-01T20:59:39;5.83;;;2.60;;
44824;SDS011;30542;47.928;2.138;2023-02-01T21:04:40;4.33;;;1.80;;
44824;SDS011;30542;47.928;2.138;2023-02-01T21:09:40;5.73;;;2.33;;
44824;SDS011;30542;47.928;2.138;2023-02-01T21:14:42;4.15;;;2.25;;
44824;SDS011;30542;47.928;2.138;2023-02-01T21:19:42;4.23;;;2.10;;
44824;SDS011;30542;47.928;2.138;2023-02-01T21:24:42;7.43;;;2.30;;
44824;SDS011;30542;47.928;2.138;2023-02-01T21:29:43;4.67;;;1.77;;
44824;SDS011;30542;47.928;2.138;2023-02-01T21:34:43;3.63;;;1.53;;
44824;SDS011;30542;47.928;2.138;2023-02-01T21:39:43;3.17;;;1.63;;
44824;SDS011;30542;47.928;2.138;2023-02-01T21:44:44;4.70;;;1.80;;
44824;SDS011;30542;47.928;2.138;2023-02-01T21:49:46;4.28;;;2.10;;
44824;SDS011;30542;47.928;2.138;2023-02-01T21:54:47;3.83;;;1.70;;
44824;SDS011;30542;47.928;2.138;2023-02-01T21:59:48;4.72;;;1.98;;
44824;SDS011;30542;47.928;2.138;2023-02-01T22:04:48;5.77;;;2.30;;
44824;SDS011;30542;47.928;2.138;2023-02-01T22:09:49;4.47;;;2.05;;
44824;SDS011;30542;47.928;2.138;2023-02-01T22:14:49;6.10;;;2.27;;
44824;SDS011;30542;47.928;2.138;2023-02-01T22:19:49;2.83;;;1.90;;
44824;SDS011;30542;47.928;2.138;2023-02-01T22:24:50;3.47;;;2.00;;
44824;SDS011;30542;47.928;2.138;2023-02-01T22:29:50;4.30;;;1.90;;
44824;SDS011;30542;47.928;2.138;2023-02-01T22:34:50;3.93;;;1.67;;
44824;SDS011;30542;47.928;2.138;2023-02-01T22:39:51;4.23;;;2.03;;
44824;SDS011;30542;47.928;2.138;2023-02-01T22:44:51;4.50;;;1.70;;
44824;SDS011;30542;47.928;2.138;2023-02-01T22:49:51;4.03;;;1.80;;
44824;SDS011;30542;47.928;2.138;2023-02-01T22:54:52;2.40;;;1.60;;
44824;SDS011;30542;47.928;2.138;2023-02-01T22:59:52;4.60;;;2.17;;
44824;SDS011;30542;47.928;2.138;2023-02-01T23:04:52;3.93;;;2.03;;
44824;SDS011;30542;47.928;2.138;2023-02-01T23:09:53;3.27;;;1.70;;
44824;SDS011;30542;47.928;2.138;2023-02-01T23:14:53;3.97;;;2.00;;
44824;SDS011;30542;47.928;2.138;2023-02-01T23:20:06;4.20;;;1.92;;
44824;SDS011;30542;47.928;2.138;2023-02-01T23:25:10;5.18;;;1.85;;
44824;SDS011;30542;47.928;2.138;2023-02-01T23:30:12;2.80;;;1.90;;
44824;SDS011;30542;47.928;2.138;2023-02-01T23:35:13;3.65;;;1.75;;
44824;SDS011;30542;47.928;2.138;2023-02-01T23:40:13;3.80;;;1.80;;
44824;SDS011;30542;47.928;2.138;2023-02-01T23:45:14;2.72;;;1.73;;
44824;SDS011;30542;47.928;2.138;2023-02-01T23:50:14;3.90;;;1.80;;
44824;SDS011;30542;47.928;2.138;2023-02-01T23:55:15;3.58;;;1.80;;
